Time;durP1;ratioP1;P1;durP2;ratioP2;P2;SDS_P1;SDS_P2;PMS_P1;PMS_P2;Temp;Humidity;BMP_temperature;BMP_pressure;BME280_temperature;BME280_humidity;BME280_pressure;Samples;Min_cycle;Max_cycle;Signal;HPM_P1;HPM_P2
2021/08/04 00:01:49;;;;;;;2.83;1.10;;;18.20;99.90;;;;;;4973096;28;20544;-84
2021/08/04 00:04:19;;;;;;;1.83;1.00;;;18.30;99.90;;;;;;4968912;28;20494;-84
2021/08/04 00:06:47;;;;;;;1.30;1.20;;;18.40;27.70;;;;;;4979506;28;20481;-84
2021/08/04 00:09:15;;;;;;;1.30;1.20;;;18.40;61.40;;;;;;4978438;28;20450;-83
2021/08/04 00:11:43;;;;;;;1.40;1.17;;;18.40;22.60;;;;;;4987048;28;20490;-85
2021/08/04 00:14:12;;;;;;;1.17;0.97;;;18.40;20.60;;;;;;4974120;28;20474;-84
2021/08/04 00:16:40;;;;;;;4.60;1.67;;;18.40;14.00;;;;;;4970958;28;20439;-84
2021/08/04 00:19:09;;;;;;;1.43;0.90;;;18.40;1.00;;;;;;4976367;28;20984;-84
2021/08/04 00:21:40;;;;;;;1.30;1.10;;;18.30;1.00;;;;;;4955782;28;20470;-84
2021/08/04 00:24:08;;;;;;;0.80;0.80;;;18.30;1.00;;;;;;4970487;28;20470;-84
2021/08/04 00:26:36;;;;;;;3.70;1.10;;;18.20;20.30;;;;;;4971344;28;20485;-84
2021/08/04 00:29:04;;;;;;;0.87;0.87;;;18.30;1.00;;;;;;4975920;28;20462;-84
2021/08/04 00:31:32;;;;;;;0.80;0.80;;;18.30;1.00;;;;;;4971561;28;20467;-84
2021/08/04 00:34:01;;;;;;;1.33;1.00;;;18.20;1.00;;;;;;4983842;28;20443;-84
2021/08/04 00:36:29;;;;;;;2.07;1.10;;;18.20;1.00;;;;;;4971671;28;21093;-84
2021/08/04 00:38:59;;;;;;;1.37;0.90;;;18.10;1.00;;;;;;4978441;28;20484;-84
2021/08/04 00:41:27;;;;;;;1.27;1.00;;;18.10;1.00;;;;;;4970786;28;20510;-84
2021/08/04 00:43:55;;;;;;;1.20;1.10;;;18.00;1.00;;;;;;4968880;28;20464;-84
2021/08/04 00:46:23;;;;;;;1.10;0.93;;;18.10;1.00;;;;;;4966565;28;20533;-84
2021/08/04 00:48:51;;;;;;;2.00;1.10;;;18.10;1.00;;;;;;4971516;28;20491;-84
2021/08/04 00:51:19;;;;;;;1.57;1.10;;;18.10;1.00;;;;;;4970882;28;20489;-84
2021/08/04 00:53:47;;;;;;;1.20;1.10;;;18.10;1.00;;;;;;4984151;28;20869;-83
2021/08/04 00:56:17;;;;;;;1.97;0.90;;;18.10;1.00;;;;;;4981812;28;20966;-83
2021/08/04 00:58:45;;;;;;;1.20;1.10;;;18.20;1.00;;;;;;4968744;28;20459;-83
2021/08/04 01:01:19;;;;;;;1.10;1.00;;;18.20;1.00;;;;;;4986709;28;20477;-84
2021/08/04 01:03:53;;;;;;;1.50;1.40;;;18.10;1.00;;;;;;4978389;28;20464;-84
2021/08/04 01:06:30;;;;;;;1.10;1.00;;;18.10;1.00;;;;;;4978015;28;20512;-84
2021/08/04 01:08:59;;;;;;;1.50;1.00;;;18.20;1.00;;;;;;4981566;28;20841;-84
2021/08/04 01:11:37;;;;;;;1.23;1.00;;;18.20;1.00;;;;;;4974539;28;20492;-84
2021/08/04 01:14:12;;;;;;;1.57;1.10;;;18.20;1.00;;;;;;4977066;28;20472;-82
2021/08/04 01:16:42;;;;;;;1.10;1.00;;;18.10;1.00;;;;;;4978185;28;21040;-84
2021/08/04 01:19:16;;;;;;;1.10;1.00;;;18.10;1.00;;;;;;4976659;28;20546;-84
2021/08/04 01:21:51;;;;;;;1.33;1.20;;;18.10;1.00;;;;;;4988124;28;20480;-84
2021/08/04 01:24:25;;;;;;;2.77;1.10;;;18.10;1.00;;;;;;4977720;28;20515;-84
2021/08/04 01:26:56;;;;;;;1.47;0.90;;;18.00;1.00;;;;;;4977539;28;20578;-84
2021/08/04 01:29:26;;;;;;;1.93;1.10;;;18.10;1.00;;;;;;4972609;28;20458;-83
2021/08/04 01:31:58;;;;;;;1.30;1.20;;;18.00;1.00;;;;;;4973793;28;20891;-84
2021/08/04 01:34:27;;;;;;;3.93;1.30;;;18.00;1.00;;;;;;4971434;28;20462;-84
2021/08/04 01:36:57;;;;;;;1.30;1.20;;;18.00;1.00;;;;;;4972932;28;20517;-83
2021/08/04 01:39:27;;;;;;;1.13;1.03;;;18.00;1.00;;;;;;4975590;28;20458;-84
2021/08/04 01:41:57;;;;;;;1.20;1.00;;;18.00;1.00;;;;;;4977120;28;20532;-84
2021/08/04 01:44:26;;;;;;;1.20;1.10;;;18.10;1.00;;;;;;4973280;28;20866;-84
2021/08/04 01:46:55;;;;;;;1.50;1.40;;;18.10;1.00;;;;;;4972206;28;20487;-85
2021/08/04 01:49:26;;;;;;;1.10;0.90;;;18.10;1.00;;;;;;4975298;28;21002;-84
2021/08/04 01:51:56;;;;;;;1.33;1.23;;;18.10;1.00;;;;;;4976660;28;20497;-84
2021/08/04 01:54:25;;;;;;;1.30;1.17;;;18.20;1.00;;;;;;4977652;28;20450;-83
2021/08/04 01:56:53;;;;;;;1.23;0.87;;;18.20;1.00;;;;;;4975212;28;20470;-83
2021/08/04 01:59:23;;;;;;;1.30;1.00;;;18.10;1.00;;;;;;4979925;28;20519;-83
2021/08/04 02:01:52;;;;;;;1.20;1.10;;;18.10;1.00;;;;;;4976489;28;20509;-84
2021/08/04 02:04:20;;;;;;;3.60;1.30;;;18.10;1.00;;;;;;4971101;28;20457;-84
2021/08/04 02:06:55;;;;;;;3.30;1.67;;;18.20;1.00;;;;;;4973291;28;20482;-83
2021/08/04 02:09:28;;;;;;;1.97;1.73;;;18.10;1.00;;;;;;4973607;28;20497;-85
2021/08/04 02:12:01;;;;;;;5.80;1.20;;;18.10;1.00;;;;;;4972161;28;20497;-84
2021/08/04 02:14:35;;;;;;;1.13;0.97;;;18.10;1.00;;;;;;4979914;28;20473;-84
2021/08/04 02:17:09;;;;;;;1.10;1.00;;;18.20;1.00;;;;;;4975741;28;20461;-84
2021/08/04 02:19:45;;;;;;;1.47;1.10;;;18.10;1.00;;;;;;4973554;28;20838;-84
2021/08/04 02:22:20;;;;;;;1.70;1.00;;;18.00;1.00;;;;;;4972324;28;20478;-83
2021/08/04 02:24:54;;;;;;;1.37;1.00;;;18.10;1.00;;;;;;4974958;28;20961;-83
2021/08/04 02:27:23;;;;;;;1.23;1.13;;;18.20;1.00;;;;;;4971874;28;20839;-84
2021/08/04 02:29:52;;;;;;;2.90;1.00;;;18.20;1.00;;;;;;4973502;28;20873;-83
2021/08/04 02:32:21;;;;;;;1.10;1.00;;;18.20;1.00;;;;;;4971259;28;20529;-83
2021/08/04 02:34:49;;;;;;;3.53;1.17;;;18.30;1.00;;;;;;4972474;28;21684;-83
2021/08/04 02:37:18;;;;;;;1.33;1.10;;;18.30;1.00;;;;;;4982700;28;20897;-83
2021/08/04 02:39:46;;;;;;;1.83;1.00;;;18.30;1.00;;;;;;4972340;28;20448;-84
2021/08/04 02:42:14;;;;;;;3.40;1.07;;;18.30;1.00;;;;;;4971177;28;20481;-83
2021/08/04 02:44:42;;;;;;;2.73;1.00;;;18.20;1.00;;;;;;4975646;28;20470;-84
2021/08/04 02:47:12;;;;;;;1.50;1.00;;;18.20;1.00;;;;;;4974873;28;20490;-84
2021/08/04 02:49:40;;;;;;;1.13;1.03;;;18.10;1.00;;;;;;4974734;28;20533;-83
2021/08/04 02:52:10;;;;;;;3.70;1.20;;;18.10;1.00;;;;;;4973030;28;20556;-83
2021/08/04 02:54:38;;;;;;;1.40;1.30;;;18.10;1.00;;;;;;4969213;28;20463;-84
2021/08/04 02:57:08;;;;;;;1.07;1.00;;;18.10;1.00;;;;;;4976350;28;20524;-83
2021/08/04 02:59:36;;;;;;;1.80;0.93;;;18.00;1.00;;;;;;4986382;28;20996;-84
2021/08/04 03:02:05;;;;;;;1.47;1.07;;;18.00;1.00;;;;;;4976123;28;21010;-82
2021/08/04 03:04:34;;;;;;;1.20;1.10;;;18.00;1.00;;;;;;4964628;28;20546;-84
2021/08/04 03:07:03;;;;;;;1.53;1.43;;;18.00;1.00;;;;;;4975205;28;20470;-83
2021/08/04 03:09:31;;;;;;;1.77;1.03;;;18.10;1.00;;;;;;4987319;28;20457;-84
2021/08/04 03:11:59;;;;;;;1.13;1.03;;;18.00;1.00;;;;;;4978754;28;20647;-83
2021/08/04 03:14:27;;;;;;;1.23;1.10;;;18.00;1.00;;;;;;4980730;28;20622;-83
2021/08/04 03:16:55;;;;;;;1.23;1.03;;;17.90;1.00;;;;;;4971235;28;20453;-84
2021/08/04 03:19:23;;;;;;;1.17;1.00;;;18.00;1.00;;;;;;4973888;28;20541;-84
2021/08/04 03:21:53;;;;;;;3.63;1.17;;;18.10;1.00;;;;;;4981640;28;20537;-84
2021/08/04 03:24:21;;;;;;;1.33;1.10;;;18.10;1.00;;;;;;4971333;28;20521;-84
2021/08/04 03:26:49;;;;;;;1.93;1.00;;;18.00;1.00;;;;;;4970953;28;20477;-84
2021/08/04 03:29:17;;;;;;;1.23;1.13;;;17.90;1.00;;;;;;4978213;28;20497;-83
2021/08/04 03:31:45;;;;;;;2.10;1.63;;;17.80;1.00;;;;;;4973966;28;21087;-83
2021/08/04 03:34:14;;;;;;;1.90;1.00;;;17.80;1.00;;;;;;4972707;28;20499;-83
2021/08/04 03:36:42;;;;;;;1.20;1.10;;;17.70;1.00;;;;;;4975438;28;21128;-83
2021/08/04 03:39:11;;;;;;;1.37;1.27;;;17.50;1.00;;;;;;4971066;28;20914;-83
2021/08/04 03:41:39;;;;;;;1.13;1.03;;;17.50;1.00;;;;;;4975653;28;20984;-83
2021/08/04 03:44:07;;;;;;;1.00;0.90;;;17.50;1.00;;;;;;4973632;28;20465;-83
2021/08/04 03:46:36;;;;;;;1.23;1.13;;;17.60;1.00;;;;;;4983290;28;20463;-83
2021/08/04 03:49:04;;;;;;;1.20;1.10;;;17.70;1.00;;;;;;4970705;28;21794;-83
2021/08/04 03:51:32;;;;;;;1.20;1.10;;;17.80;1.00;;;;;;4981533;28;21102;-83
2021/08/04 03:54:00;;;;;;;1.30;0.97;;;17.80;1.00;;;;;;4974183;28;20462;-82
2021/08/04 03:56:29;;;;;;;1.80;1.27;;;17.80;1.00;;;;;;4972302;28;20458;-83
2021/08/04 03:58:58;;;;;;;2.00;1.33;;;17.90;1.00;;;;;;4971909;28;20457;-83
2021/08/04 04:01:26;;;;;;;1.20;0.90;;;17.90;1.00;;;;;;4977259;28;20473;-83
2021/08/04 04:03:54;;;;;;;1.50;0.90;;;18.00;1.00;;;;;;4971747;28;20471;-83
2021/08/04 04:06:22;;;;;;;0.90;0.90;;;18.10;1.00;;;;;;4970551;28;21024;-83
2021/08/04 04:08:50;;;;;;;1.27;1.10;;;18.10;1.00;;;;;;4974403;28;20514;-83
2021/08/04 04:11:18;;;;;;;1.87;1.40;;;18.10;1.00;;;;;;4975216;28;20477;-83
2021/08/04 04:13:48;;;;;;;1.70;1.10;;;18.20;1.00;;;;;;4970343;28;20465;-83
2021/08/04 04:16:16;;;;;;;1.50;1.10;;;18.10;1.00;;;;;;4983487;28;20462;-84
2021/08/04 04:18:44;;;;;;;3.10;1.67;;;18.10;1.00;;;;;;4981782;28;20453;-84
2021/08/04 04:21:13;;;;;;;1.30;1.20;;;18.00;1.00;;;;;;4982279;28;20901;-84
2021/08/04 04:23:41;;;;;;;2.23;1.20;;;18.00;1.00;;;;;;4971605;28;20462;-84
2021/08/04 04:26:09;;;;;;;1.23;1.10;;;18.00;1.00;;;;;;4966836;28;20540;-84
2021/08/04 04:28:38;;;;;;;2.10;1.30;;;18.00;1.00;;;;;;4974928;28;20471;-83
2021/08/04 04:31:07;;;;;;;1.80;1.17;;;17.90;1.00;;;;;;4973539;28;20482;-84
2021/08/04 04:33:35;;;;;;;1.40;1.30;;;17.90;1.00;;;;;;4973590;28;20449;-83
2021/08/04 04:36:04;;;;;;;4.80;1.30;;;17.90;1.00;;;;;;4970544;28;20889;-83
2021/08/04 04:38:32;;;;;;;1.30;1.20;;;17.90;1.00;;;;;;4987508;28;20457;-83
2021/08/04 04:41:00;;;;;;;1.27;0.90;;;17.90;1.00;;;;;;4974914;28;20489;-83
2021/08/04 04:43:28;;;;;;;1.47;1.37;;;17.80;1.00;;;;;;4973674;28;20458;-84
2021/08/04 04:45:56;;;;;;;1.20;1.10;;;17.70;1.00;;;;;;4971299;28;20993;-83
2021/08/04 04:48:26;;;;;;;1.93;1.40;;;17.60;1.00;;;;;;4989469;28;20480;-83
2021/08/04 04:50:54;;;;;;;1.23;1.13;;;17.50;1.00;;;;;;4973095;28;20496;-83
2021/08/04 04:53:22;;;;;;;1.43;1.20;;;17.60;1.00;;;;;;4975417;28;20461;-84
2021/08/04 04:55:50;;;;;;;2.07;1.00;;;17.60;1.00;;;;;;4972807;28;20465;-85
2021/08/04 04:58:18;;;;;;;1.33;1.10;;;17.50;1.00;;;;;;4974548;28;20452;-85
2021/08/04 05:00:46;;;;;;;1.40;1.30;;;17.50;1.00;;;;;;4970261;28;20482;-84
2021/08/04 05:03:14;;;;;;;3.57;1.30;;;17.50;1.00;;;;;;4981075;28;20449;-83
2021/08/04 05:05:44;;;;;;;1.97;1.30;;;17.40;33.00;;;;;;4976294;28;20840;-84
2021/08/04 05:08:12;;;;;;;3.20;1.27;;;17.50;1.00;;;;;;4974369;28;20493;-83
2021/08/04 05:10:40;;;;;;;1.50;1.00;;;17.40;1.00;;;;;;4985779;28;20506;-83
2021/08/04 05:13:08;;;;;;;2.20;1.60;;;17.50;1.00;;;;;;4976331;28;20519;-83
2021/08/04 05:15:37;;;;;;;1.57;1.27;;;17.50;1.00;;;;;;4974670;28;20465;-84
2021/08/04 05:18:05;;;;;;;1.10;1.00;;;17.60;1.00;;;;;;4972524;28;20457;-82
2021/08/04 05:20:33;;;;;;;1.23;1.00;;;17.60;1.00;;;;;;4973402;28;20547;-83
2021/08/04 05:23:02;;;;;;;1.20;1.10;;;17.60;1.00;;;;;;4981339;28;20552;-82
2021/08/04 05:25:30;;;;;;;5.60;1.50;;;17.60;1.00;;;;;;4986794;28;20462;-84
2021/08/04 05:27:59;;;;;;;3.03;1.57;;;17.50;1.00;;;;;;4974931;28;20457;-86
2021/08/04 05:30:27;;;;;;;1.10;1.00;;;17.50;1.00;;;;;;4982913;28;20478;-86
2021/08/04 05:32:55;;;;;;;1.80;1.37;;;17.50;1.00;;;;;;4989897;28;20466;-85
2021/08/04 05:35:23;;;;;;;2.03;1.33;;;17.60;1.00;;;;;;4982458;28;20789;-86
2021/08/04 05:37:51;;;;;;;1.20;1.10;;;17.60;1.00;;;;;;4981745;28;20468;-86
2021/08/04 05:40:21;;;;;;;2.40;1.23;;;17.60;1.00;;;;;;4992534;28;20522;-85
2021/08/04 05:42:49;;;;;;;2.57;1.30;;;17.70;17.10;;;;;;4973655;28;20813;-85
2021/08/04 05:45:17;;;;;;;1.20;1.10;;;17.70;1.00;;;;;;4971085;28;21013;-85
2021/08/04 05:47:45;;;;;;;1.03;0.93;;;17.70;1.00;;;;;;4972860;28;20519;-85
2021/08/04 05:50:14;;;;;;;1.23;1.10;;;17.70;1.00;;;;;;4973161;28;20487;-84
2021/08/04 05:52:42;;;;;;;1.30;1.10;;;17.70;1.00;;;;;;4971827;28;20976;-87
2021/08/04 05:55:11;;;;;;;1.20;1.03;;;17.70;1.00;;;;;;4970909;28;20462;-85
2021/08/04 05:57:41;;;;;;;1.23;1.13;;;17.70;1.00;;;;;;4973449;28;20467;-86
2021/08/04 06:00:10;;;;;;;1.80;1.10;;;17.80;1.00;;;;;;4962984;28;20450;-87
2021/08/04 06:02:38;;;;;;;1.30;1.20;;;17.70;1.00;;;;;;4980485;28;20464;-86
2021/08/04 06:05:07;;;;;;;1.37;1.20;;;17.80;1.00;;;;;;4989848;28;20449;-86
2021/08/04 06:07:36;;;;;;;1.53;1.30;;;17.90;1.00;;;;;;4971798;28;20461;-85
2021/08/04 06:10:04;;;;;;;1.47;1.20;;;17.90;1.00;;;;;;4987715;28;20504;-85
2021/08/04 06:12:33;;;;;;;1.20;1.00;;;17.90;1.00;;;;;;4970648;28;20474;-85
2021/08/04 06:15:03;;;;;;;1.30;1.20;;;18.00;1.00;;;;;;4972721;28;20823;-86
2021/08/04 06:17:31;;;;;;;2.20;1.20;;;17.90;1.00;;;;;;4970332;28;20458;-85
2021/08/04 06:19:59;;;;;;;1.23;1.13;;;17.90;1.00;;;;;;4972180;28;20692;-86
2021/08/04 06:22:27;;;;;;;1.23;1.13;;;17.90;1.00;;;;;;4972591;28;20466;-86
2021/08/04 06:24:55;;;;;;;1.90;1.33;;;18.00;1.00;;;;;;4972314;28;20546;-86
2021/08/04 06:27:23;;;;;;;3.10;1.00;;;18.10;1.00;;;;;;4986199;28;20867;-85
2021/08/04 06:29:52;;;;;;;1.30;1.03;;;18.10;1.00;;;;;;4973327;28;20841;-86
2021/08/04 06:32:21;;;;;;;1.57;1.30;;;18.20;1.00;;;;;;4971782;28;20474;-86
2021/08/04 06:34:49;;;;;;;2.50;1.30;;;18.30;1.00;;;;;;4968598;28;20485;-85
2021/08/04 06:37:18;;;;;;;1.23;1.13;;;18.40;1.00;;;;;;4989347;28;20447;-86
2021/08/04 06:39:46;;;;;;;1.17;1.07;;;18.50;1.00;;;;;;4973758;28;20856;-86
2021/08/04 06:42:19;;;;;;;4.50;1.20;;;18.50;1.00;;;;;;4972375;28;20485;-86
2021/08/04 06:44:47;;;;;;;1.20;1.10;;;18.50;1.00;;;;;;4967908;28;20988;-85
2021/08/04 06:47:15;;;;;;;1.17;1.07;;;18.60;1.00;;;;;;4968590;28;20470;-86
2021/08/04 06:49:45;;;;;;;1.23;1.13;;;18.70;1.00;;;;;;4972119;28;20490;-87
2021/08/04 06:52:13;;;;;;;1.40;1.30;;;18.90;1.00;;;;;;4973080;28;20518;-86
2021/08/04 06:54:41;;;;;;;1.47;1.37;;;19.00;1.00;;;;;;4972319;28;20510;-85
2021/08/04 06:57:09;;;;;;;2.90;1.30;;;19.00;1.00;;;;;;4987679;28;20486;-84
2021/08/04 06:59:38;;;;;;;1.33;1.20;;;18.90;1.00;;;;;;4986089;28;20489;-85
2021/08/04 07:02:06;;;;;;;1.50;1.20;;;18.90;1.00;;;;;;4969565;28;21149;-84
2021/08/04 07:04:34;;;;;;;1.10;1.00;;;18.90;99.90;;;;;;4987241;28;20607;-85
2021/08/04 07:07:05;;;;;;;1.63;1.17;;;18.90;1.00;;;;;;4968332;28;20443;-85
2021/08/04 07:09:34;;;;;;;1.27;1.17;;;18.90;99.90;;;;;;4969351;28;20491;-85
2021/08/04 07:12:03;;;;;;;2.17;1.50;;;19.00;99.90;;;;;;4968237;28;20487;-85
2021/08/04 07:14:31;;;;;;;1.10;1.00;;;19.20;99.90;;;;;;4971105;28;20525;-85
2021/08/04 07:16:59;;;;;;;1.47;1.37;;;19.40;99.90;;;;;;4964888;28;20467;-85
2021/08/04 07:19:28;;;;;;;2.07;1.00;;;19.50;99.90;;;;;;4973285;28;20463;-84
2021/08/04 07:21:56;;;;;;;1.57;1.20;;;19.80;99.90;;;;;;4970936;28;20833;-84
2021/08/04 07:24:26;;;;;;;1.27;1.17;;;20.00;99.90;;;;;;4971179;28;20463;-85
2021/08/04 07:26:54;;;;;;;1.40;1.10;;;20.20;99.90;;;;;;4970609;28;20470;-85
2021/08/04 07:29:22;;;;;;;1.30;1.20;;;20.20;99.90;;;;;;4972059;28;20531;-84
2021/08/04 07:31:50;;;;;;;1.53;1.27;;;20.20;99.90;;;;;;4970751;28;20482;-84
2021/08/04 07:34:24;;;;;;;1.20;1.00;;;20.20;99.90;;;;;;4972616;28;20459;-84
2021/08/04 07:36:53;;;;;;;2.07;1.13;;;20.10;99.90;;;;;;4972290;28;20921;-84
2021/08/04 07:39:22;;;;;;;1.63;1.20;;;20.10;99.90;;;;;;4987542;28;20470;-85
2021/08/04 07:41:55;;;;;;;1.13;1.03;;;20.10;99.90;;;;;;4989199;28;20486;-84
2021/08/04 07:44:26;;;;;;;1.43;1.10;;;20.10;99.90;;;;;;4972729;28;20479;-86
2021/08/04 07:46:54;;;;;;;1.30;0.90;;;20.10;99.90;;;;;;4970390;28;20931;-86
2021/08/04 07:49:23;;;;;;;1.20;1.00;;;20.20;99.90;;;;;;4973734;28;20463;-85
2021/08/04 07:51:51;;;;;;;0.97;0.90;;;20.10;99.90;;;;;;4987260;28;20482;-85
2021/08/04 07:54:19;;;;;;;1.20;1.10;;;20.10;99.90;;;;;;4988362;28;20466;-85
2021/08/04 07:56:47;;;;;;;1.73;1.20;;;20.10;99.90;;;;;;4971107;28;20982;-85
2021/08/04 07:59:17;;;;;;;1.20;1.03;;;20.10;99.90;;;;;;4973637;28;20510;-85
2021/08/04 08:01:45;;;;;;;1.77;1.20;;;20.10;99.90;;;;;;4970982;28;20494;-85
2021/08/04 08:04:14;;;;;;;1.20;1.10;;;20.10;99.90;;;;;;4972414;28;21113;-85
2021/08/04 08:06:42;;;;;;;1.20;1.10;;;20.10;99.90;;;;;;4972121;28;20463;-85
2021/08/04 08:09:11;;;;;;;2.37;1.10;;;20.10;99.90;;;;;;4974116;28;20513;-85
2021/08/04 08:11:40;;;;;;;1.10;1.00;;;20.20;99.90;;;;;;4975721;28;21439;-85
2021/08/04 08:14:08;;;;;;;2.53;1.03;;;20.20;99.90;;;;;;4976327;28;20474;-85
2021/08/04 08:16:38;;;;;;;0.97;0.93;;;20.30;99.90;;;;;;4990319;28;20467;-84
2021/08/04 08:19:06;;;;;;;1.33;1.07;;;20.30;99.90;;;;;;4976506;28;20553;-85
2021/08/04 08:21:34;;;;;;;0.90;0.90;;;20.30;99.90;;;;;;4970373;28;20472;-85
2021/08/04 08:24:03;;;;;;;0.90;0.87;;;20.10;99.90;;;;;;4987460;28;20470;-85
2021/08/04 08:26:31;;;;;;;1.47;1.10;;;20.00;99.90;;;;;;4987095;28;20458;-85
2021/08/04 08:28:59;;;;;;;1.10;1.00;;;19.90;99.90;;;;;;4976190;28;20462;-85
2021/08/04 08:31:27;;;;;;;0.83;0.83;;;19.80;99.90;;;;;;4975902;28;20557;-86
2021/08/04 08:34:00;;;;;;;1.30;1.20;;;19.80;99.90;;;;;;4974188;28;20463;-86
2021/08/04 08:36:28;;;;;;;1.87;1.20;;;19.90;99.90;;;;;;4974715;28;20497;-86
2021/08/04 08:38:56;;;;;;;1.30;1.20;;;19.80;99.90;;;;;;4975768;28;20459;-85
2021/08/04 08:41:25;;;;;;;1.60;1.20;;;19.90;99.90;;;;;;4969934;28;20474;-89
2021/08/04 08:43:57;;;;;;;1.53;1.00;;;19.90;99.90;;;;;;4971028;28;20458;-85
2021/08/04 08:46:27;;;;;;;2.00;1.20;;;19.90;99.90;;;;;;4975148;28;20535;-86
2021/08/04 08:48:57;;;;;;;1.20;1.00;;;19.90;99.90;;;;;;4976237;28;20566;-86
2021/08/04 08:51:26;;;;;;;1.10;0.90;;;19.90;99.90;;;;;;4976067;28;20498;-86
2021/08/04 08:53:54;;;;;;;2.03;1.10;;;19.90;99.90;;;;;;4970773;28;20542;-85
2021/08/04 08:56:23;;;;;;;1.30;1.20;;;19.90;99.90;;;;;;4974461;28;20459;-83
2021/08/04 08:58:54;;;;;;;1.20;1.10;;;20.00;99.90;;;;;;4972407;28;20794;-86
2021/08/04 09:01:32;;;;;;;1.20;1.10;;;20.10;99.90;;;;;;4976123;28;20481;-86
2021/08/04 09:04:06;;;;;;;1.73;1.20;;;20.10;99.90;;;;;;4972038;28;20465;-86
2021/08/04 09:06:52;;;;;;;1.70;0.97;;;20.10;99.90;;;;;;4976279;28;20459;-88
2021/08/04 09:09:22;;;;;;;1.03;0.90;;;20.20;99.90;;;;;;4973763;28;20530;-85
2021/08/04 09:11:53;;;;;;;1.10;1.00;;;20.30;99.90;;;;;;4974555;28;20502;-85
2021/08/04 09:14:28;;;;;;;1.07;0.97;;;20.40;99.90;;;;;;4969746;28;20466;-85
2021/08/04 09:17:02;;;;;;;1.70;1.20;;;20.50;99.90;;;;;;4991018;28;20491;-86
2021/08/04 09:19:33;;;;;;;1.20;1.10;;;20.60;99.90;;;;;;4975856;28;20459;-86
2021/08/04 09:22:11;;;;;;;1.30;1.17;;;20.60;99.90;;;;;;4981206;28;20526;-85
2021/08/04 09:25:01;;;;;;;1.87;1.30;;;20.60;99.90;;;;;;4973673;28;20459;-85
2021/08/04 09:27:44;;;;;;;1.40;1.30;;;20.50;99.90;;;;;;4973146;28;20453;-86
2021/08/04 09:30:17;;;;;;;1.20;1.10;;;20.60;99.90;;;;;;4987696;28;20589;-85
2021/08/04 09:32:45;;;;;;;1.47;1.37;;;20.50;99.90;;;;;;4974877;28;20460;-85
2021/08/04 09:35:17;;;;;;;2.50;1.10;;;20.60;99.90;;;;;;4975955;28;20455;-85
2021/08/04 09:37:47;;;;;;;1.20;1.10;;;20.60;99.90;;;;;;4974440;28;20546;-85
2021/08/04 09:40:18;;;;;;;1.33;1.10;;;20.60;99.90;;;;;;4971804;28;20459;-85
2021/08/04 09:42:49;;;;;;;1.73;1.40;;;20.60;99.90;;;;;;4971093;28;20456;-84
2021/08/04 09:45:20;;;;;;;1.30;1.20;;;20.50;99.90;;;;;;4966442;28;20466;-85
2021/08/04 09:47:57;;;;;;;4.33;1.10;;;20.50;99.90;;;;;;4971964;28;20463;-85
2021/08/04 09:50:27;;;;;;;1.27;1.17;;;20.50;99.90;;;;;;4981549;28;20540;-84
2021/08/04 09:52:56;;;;;;;1.73;1.00;;;20.50;99.90;;;;;;4972606;28;20812;-85
2021/08/04 09:55:25;;;;;;;1.50;1.20;;;20.50;99.90;;;;;;4971749;28;20461;-87
2021/08/04 09:57:55;;;;;;;1.63;0.93;;;20.50;99.90;;;;;;4974359;28;20550;-87
2021/08/04 10:00:24;;;;;;;1.30;1.20;;;20.50;99.90;;;;;;4988290;28;20487;-84
2021/08/04 10:02:52;;;;;;;1.40;1.17;;;20.50;99.90;;;;;;4975400;28;20547;-86
2021/08/04 10:05:24;;;;;;;1.00;0.90;;;20.50;99.90;;;;;;4977080;28;20479;-87
2021/08/04 10:08:07;;;;;;;1.13;1.03;;;20.50;99.90;;;;;;4986035;28;20638;-86
2021/08/04 10:10:37;;;;;;;2.10;1.30;;;20.50;99.90;;;;;;4975442;28;20857;-86
2021/08/04 10:13:13;;;;;;;1.07;0.97;;;20.60;99.90;;;;;;4973613;28;20509;-86
2021/08/04 10:15:44;;;;;;;1.40;1.03;;;20.60;99.90;;;;;;4975552;28;20459;-81
2021/08/04 10:18:14;;;;;;;1.20;1.10;;;20.70;99.90;;;;;;4988605;28;20451;-85
2021/08/04 10:20:42;;;;;;;1.97;1.00;;;20.70;99.90;;;;;;4973977;28;20883;-80
2021/08/04 10:23:15;;;;;;;1.10;0.90;;;20.80;99.90;;;;;;4975784;28;20454;-82
2021/08/04 10:25:45;;;;;;;1.23;1.13;;;20.90;99.90;;;;;;4988235;28;20470;-81
2021/08/04 10:28:14;;;;;;;2.83;1.10;;;21.00;99.90;;;;;;4972056;28;20455;-82
2021/08/04 10:30:43;;;;;;;1.23;1.13;;;21.00;99.90;;;;;;4968519;28;20486;-80
2021/08/04 10:33:13;;;;;;;1.30;1.20;;;21.10;99.90;;;;;;4973535;28;20502;-80
2021/08/04 10:35:44;;;;;;;1.57;1.10;;;21.10;99.90;;;;;;4971933;28;20468;-81
2021/08/04 10:38:19;;;;;;;1.10;1.00;;;21.20;99.90;;;;;;4974367;28;20449;-80
2021/08/04 10:40:47;;;;;;;1.07;1.07;;;21.20;99.90;;;;;;4971524;28;20486;-82
2021/08/04 10:43:37;;;;;;;1.40;1.00;;;21.20;99.90;;;;;;4972557;28;20451;-81
2021/08/04 10:46:37;;;;;;;1.97;1.10;;;21.20;99.90;;;;;;4969554;28;20508;-81
2021/08/04 10:49:20;;;;;;;1.60;1.30;;;21.10;99.90;;;;;;4973340;28;20444;-82
2021/08/04 10:52:16;;;;;;;1.37;1.27;;;21.00;99.90;;;;;;4968222;28;21041;-81
2021/08/04 10:55:10;;;;;;;1.43;1.10;;;21.00;99.90;;;;;;4968160;28;20455;-81
2021/08/04 10:58:14;;;;;;;1.70;1.60;;;21.00;99.90;;;;;;4973258;28;20487;-82
2021/08/04 11:00:43;;;;;;;1.83;1.30;;;20.90;99.90;;;;;;4971393;28;20485;-83
2021/08/04 11:03:46;;;;;;;2.60;1.10;;;21.00;99.90;;;;;;4985738;28;20556;-82
2021/08/04 11:06:15;;;;;;;1.40;1.17;;;21.00;99.90;;;;;;4971553;28;20447;-82
2021/08/04 11:08:47;;;;;;;0.90;0.90;;;21.00;99.90;;;;;;4973070;28;20928;-83
2021/08/04 11:11:55;;;;;;;2.33;0.90;;;21.10;99.90;;;;;;4971567;28;20483;-83
2021/08/04 11:14:41;;;;;;;1.00;0.90;;;21.10;99.90;;;;;;4972259;28;20467;-83
2021/08/04 11:17:11;;;;;;;1.30;1.10;;;21.20;99.90;;;;;;4970335;28;20575;-81
2021/08/04 11:20:14;;;;;;;1.20;1.10;;;21.30;99.90;;;;;;4971165;28;21017;-81
2021/08/04 11:22:47;;;;;;;2.17;1.10;;;21.30;99.90;;;;;;4912571;29;20449;-81
2021/08/04 11:25:31;;;;;;;2.13;1.13;;;21.20;99.90;;;;;;4914943;29;20463;-80
2021/08/04 11:28:11;;;;;;;1.03;0.93;;;21.30;99.90;;;;;;4948320;28;20480;-79
2021/08/04 11:30:40;;;;;;;1.50;1.10;;;21.30;99.90;;;;;;4970099;28;20475;-82
2021/08/04 11:33:42;;;;;;;0.97;0.97;;;21.20;99.90;;;;;;4970345;28;20475;-81
2021/08/04 11:36:27;;;;;;;1.53;1.30;;;21.20;99.90;;;;;;4956071;28;20456;-83
2021/08/04 11:39:02;;;;;;;2.27;1.03;;;21.20;99.90;;;;;;4967801;28;20820;-83
2021/08/04 11:41:49;;;;;;;1.77;1.30;;;21.20;99.90;;;;;;4970908;28;20471;-81
2021/08/04 11:44:24;;;;;;;1.80;1.00;;;21.30;99.90;;;;;;4969964;28;20946;-84
2021/08/04 11:46:55;;;;;;;3.07;1.10;;;21.30;99.90;;;;;;4969256;28;20832;-83
2021/08/04 11:49:29;;;;;;;1.77;1.37;;;21.30;99.90;;;;;;4968522;28;20917;-82
2021/08/04 11:51:58;;;;;;;1.00;0.90;;;21.40;99.90;;;;;;4970886;28;21056;-82
2021/08/04 11:54:36;;;;;;;1.40;0.90;;;21.40;99.90;;;;;;4989752;28;20530;-81
2021/08/04 11:57:07;;;;;;;1.30;1.17;;;21.40;99.90;;;;;;4989562;28;20459;-83
2021/08/04 11:59:47;;;;;;;1.30;1.20;;;21.30;99.90;;;;;;4971284;28;20514;-82
2021/08/04 12:02:16;;;;;;;0.90;0.80;;;21.30;99.90;;;;;;4970944;28;20478;-84
2021/08/04 12:04:47;;;;;;;1.10;1.00;;;21.30;99.90;;;;;;4985746;28;20500;-82
2021/08/04 12:07:16;;;;;;;1.10;0.90;;;21.30;99.90;;;;;;4982366;28;20462;-83
2021/08/04 12:09:44;;;;;;;2.70;1.23;;;21.20;99.90;;;;;;4971205;28;20467;-82
2021/08/04 12:12:16;;;;;;;3.13;1.00;;;21.20;99.90;;;;;;4966898;28;20482;-82
2021/08/04 12:14:46;;;;;;;1.10;1.00;;;21.30;99.90;;;;;;4971543;28;20568;-82
2021/08/04 12:17:31;;;;;;;1.40;1.30;;;21.30;99.90;;;;;;4970808;28;20468;-83
2021/08/04 12:20:11;;;;;;;1.10;0.90;;;21.30;99.90;;;;;;4970557;28;20904;-83
2021/08/04 12:22:39;;;;;;;1.33;1.23;;;21.30;99.90;;;;;;4970619;28;20462;-83
2021/08/04 12:25:10;;;;;;;1.37;1.13;;;21.20;99.90;;;;;;4973585;28;20462;-83
2021/08/04 12:27:41;;;;;;;1.37;1.27;;;21.30;99.90;;;;;;4969864;28;20465;-83
2021/08/04 12:30:24;;;;;;;1.80;1.00;;;21.20;99.90;;;;;;4971691;28;20498;-83
2021/08/04 12:33:02;;;;;;;0.90;0.90;;;21.20;99.90;;;;;;4964217;28;20504;-83
2021/08/04 12:35:41;;;;;;;1.03;0.90;;;21.20;99.90;;;;;;4971083;28;20522;-83
2021/08/04 12:38:12;;;;;;;1.40;1.10;;;21.20;99.90;;;;;;4967766;28;20486;-83
2021/08/04 12:40:41;;;;;;;1.43;1.33;;;21.10;99.90;;;;;;4970331;28;20467;-83
2021/08/04 12:43:11;;;;;;;1.30;1.20;;;21.10;99.90;;;;;;4971086;28;20458;-83
2021/08/04 12:45:47;;;;;;;1.13;1.03;;;21.10;99.90;;;;;;4969077;28;20551;-83
2021/08/04 12:48:18;;;;;;;1.17;1.07;;;21.20;99.90;;;;;;4968481;28;20459;-83
2021/08/04 12:50:53;;;;;;;1.10;1.00;;;21.20;99.90;;;;;;4968269;28;20518;-83
2021/08/04 12:53:23;;;;;;;1.17;1.07;;;21.20;99.90;;;;;;4967005;28;20545;-83
2021/08/04 12:56:06;;;;;;;1.40;1.30;;;21.20;99.90;;;;;;4973346;28;20911;-83
2021/08/04 12:58:53;;;;;;;1.30;1.13;;;21.20;99.90;;;;;;4966323;28;20830;-83
2021/08/04 13:01:24;;;;;;;1.57;1.23;;;21.20;99.90;;;;;;4967416;28;20474;-83
2021/08/04 13:03:53;;;;;;;1.47;1.00;;;21.20;99.90;;;;;;4974049;28;20457;-82
2021/08/04 13:06:49;;;;;;;0.90;0.90;;;21.20;99.90;;;;;;4975997;28;20456;-83
2021/08/04 13:09:18;;;;;;;1.40;1.00;;;21.20;99.90;;;;;;4970520;28;20549;-84
2021/08/04 13:11:46;;;;;;;1.27;1.10;;;21.20;99.90;;;;;;4987710;28;20480;-83
2021/08/04 13:14:14;;;;;;;1.40;1.10;;;21.10;99.90;;;;;;4975119;28;20495;-82